Time;durP1;ratioP1;P1;durP2;ratioP2;P2;SDS_P1;SDS_P2;PMS_P1;PMS_P2;Temp;Humidity;BMP_temperature;BMP_pressure;BME280_temperature;BME280_humidity;BME280_pressure;Samples;Min_cycle;Max_cycle;Signal;HPM_P1;HPM_P2
2022/09/25 00:04:24;;;;;;;5.90;4.85;;;;;;;10.65;100.00;100616.06;10420326;28;20047;-71
2022/09/25 00:09:25;;;;;;;6.25;4.63;;;;;;;10.34;100.00;100572.44;10419898;28;20041;-70
2022/09/25 00:14:25;;;;;;;4.97;3.95;;;;;;;10.32;100.00;100569.13;10420491;28;20041;-70
2022/09/25 00:24:46;;;;;;;9.57;3.75;;;;;;;10.34;100.00;100593.69;10420105;28;20045;-70
2022/09/25 00:29:46;;;;;;;5.72;3.60;;;;;;;10.45;100.00;100614.66;10418886;28;20077;-71
2022/09/25 00:34:47;;;;;;;6.25;3.80;;;;;;;10.88;100.00;100688.03;10418847;28;20065;-70
2022/09/25 00:39:48;;;;;;;5.20;3.33;;;;;;;10.70;100.00;100671.34;10418907;28;20037;-70
2022/09/25 00:44:55;;;;;;;5.25;3.45;;;;;;;10.62;100.00;100650.06;10418188;28;20489;-70
2022/09/25 00:49:58;;;;;;;6.20;3.80;;;;;;;10.95;100.00;100715.63;10417697;28;20420;-70
2022/09/25 00:55:04;;;;;;;6.60;3.65;;;;;;;10.95;100.00;100720.94;10418070;28;20048;-71
2022/09/25 01:00:08;;;;;;;10.25;2.75;;;;;;;10.99;100.00;100726.78;10418564;28;20037;-71
2022/09/25 01:05:17;;;;;;;4.32;2.58;;;;;;;11.01;100.00;100724.78;10418648;28;20053;-71
2022/09/25 01:10:19;;;;;;;9.88;2.90;;;;;;;10.95;100.00;100717.47;10418149;28;20433;-71
2022/09/25 01:15:30;;;;;;;4.30;2.10;;;;;;;10.96;100.00;100717.28;10416981;28;20085;-70
2022/09/25 01:20:49;;;;;;;5.43;2.30;;;;;;;10.00;100.00;100552.88;10416246;28;20065;-71
2022/09/25 01:26:14;;;;;;;2.55;1.90;;;;;;;10.57;100.00;100647.06;10417159;28;20140;-71
2022/09/25 01:31:26;;;;;;;5.88;2.78;;;;;;;10.82;100.00;100703.78;10416658;28;20184;-71
2022/09/25 01:36:38;;;;;;;3.15;2.20;;;;;;;10.89;100.00;100687.03;10375376;28;20123;-70
2022/09/25 01:41:49;;;;;;;3.63;2.08;;;;;;;10.86;100.00;100665.25;10401861;28;20040;-71
2022/09/25 01:46:52;;;;;;;4.47;1.70;;;;;;;10.90;100.00;100680.72;10415946;28;20041;-70
2022/09/25 01:51:55;;;;;;;4.40;1.60;;;;;;;10.89;100.00;100672.94;10414834;28;20074;-71
2022/09/25 01:56:58;;;;;;;2.35;1.35;;;;;;;10.84;100.00;100675.22;10415649;28;20138;-71
2022/09/25 02:02:03;;;;;;;3.60;1.60;;;;;;;10.95;100.00;100707.66;10414179;28;20568;-71
2022/09/25 02:07:08;;;;;;;7.30;2.33;;;;;;;10.88;100.00;100701.31;10447865;28;20504;-70
2022/09/25 02:12:16;;;;;;;3.53;1.25;;;;;;;10.78;100.00;100675.88;10415416;28;20037;-71
2022/09/25 02:22:41;;;;;;;12.05;1.70;;;;;;;11.13;100.00;100712.03;10414086;28;20041;-71
2022/09/25 02:27:42;;;;;;;7.00;1.35;;;;;;;10.95;100.00;100689.06;10414029;28;20045;-70
2022/09/25 02:32:43;;;;;;;3.75;1.33;;;;;;;10.99;100.00;100686.06;10415080;28;20053;-72
2022/09/25 02:37:44;;;;;;;6.68;1.63;;;;;;;10.74;100.00;100651.47;10414162;28;20041;-71
2022/09/25 02:43:20;;;;;;;5.15;1.08;;;;;;;11.35;100.00;100732.69;10413990;28;20045;-70
2022/09/25 02:48:42;;;;;;;2.03;1.13;;;;;;;11.34;100.00;100739.00;10391900;28;20509;-70
2022/09/25 02:53:52;;;;;;;17.02;1.60;;;;;;;11.27;100.00;100732.66;10412283;28;20493;-71
2022/09/25 02:58:58;;;;;;;6.72;1.10;;;;;;;11.13;100.00;100722.66;10413308;28;20041;-71
2022/09/25 03:04:00;;;;;;;5.00;1.20;;;;;;;11.33;100.00;100750.63;10412932;28;20052;-70
2022/09/25 03:09:03;;;;;;;7.00;1.23;;;;;;;11.19;100.00;100733.47;10412828;28;20048;-70
2022/09/25 03:14:04;;;;;;;6.15;1.30;;;;;;;11.12;100.00;100726.31;10413437;28;20076;-70
2022/09/25 03:19:05;;;;;;;3.05;0.80;;;;;;;11.37;100.00;100751.97;10413764;28;20057;-70
2022/09/25 03:24:06;;;;;;;2.33;0.90;;;;;;;11.54;100.00;100791.91;10413624;28;20152;-70
2022/09/25 03:29:07;;;;;;;2.40;0.90;;;;;;;11.40;100.00;100778.25;10411774;28;20139;-69
2022/09/25 03:34:10;;;;;;;1.48;0.75;;;;;;;11.61;100.00;100808.91;10417454;28;20045;-69
2022/09/25 03:39:10;;;;;;;34.17;2.88;;;;;;;11.59;100.00;100813.53;10422060;28;20120;-70
2022/09/25 03:44:11;;;;;;;7.80;1.25;;;;;;;10.92;100.00;100729.25;10421985;28;20063;-70
2022/09/25 03:49:12;;;;;;;4.32;1.10;;;;;;;11.10;100.00;100760.22;10420543;28;20484;-70
2022/09/25 03:54:14;;;;;;;4.38;0.88;;;;;;;11.62;100.00;100858.44;10420377;28;20052;-69
2022/09/25 03:59:15;;;;;;;3.75;1.10;;;;;;;11.54;100.00;100831.81;10421197;28;20083;-70
2022/09/25 04:04:16;;;;;;;3.92;1.38;;;;;;;11.74;100.00;100849.16;10420667;28;20115;-70
2022/09/25 04:09:17;;;;;;;5.47;2.08;;;;;;;11.57;100.00;100823.50;10419284;28;20045;-70
2022/09/25 04:14:19;;;;;;;11.88;3.15;;;;;;;11.79;100.00;100830.88;10451910;28;20045;-70
2022/09/25 04:19:19;;;;;;;7.10;1.30;;;;;;;11.70;100.00;100793.78;10451879;28;20080;-69
2022/09/25 04:29:41;;;;;;;2.88;0.70;;;;;;;12.35;100.00;100847.06;10419281;28;20044;-70
2022/09/25 04:34:42;;;;;;;2.83;0.93;;;;;;;11.76;99.53;100727.41;10419068;28;20047;-70
2022/09/25 04:39:42;;;;;;;3.42;0.63;;;;;;;12.13;98.66;100790.00;10418416;28;20121;-70
2022/09/25 04:44:43;;;;;;;1.40;0.70;;;;;;;11.54;96.58;100693.47;10416665;28;20045;-70
2022/09/25 04:49:44;;;;;;;2.78;0.85;;;;;;;12.21;95.98;100797.97;10418582;28;20041;-70
2022/09/25 04:54:45;;;;;;;16.20;1.75;;;;;;;12.23;96.71;100774.66;10419128;28;20073;-70
2022/09/25 04:59:49;;;;;;;3.22;1.05;;;;;;;12.95;95.48;100880.47;10450196;28;20053;-70
2022/09/25 05:04:50;;;;;;;;;;;;;;;13.28;92.42;100891.09;10418429;28;20045;-69
2022/09/25 05:09:51;;;;;;;18.25;1.08;;;;;;;13.27;94.32;100890.25;10416254;28;20646;-70
2022/09/25 05:14:51;;;;;;;3.58;0.93;;;;;;;12.65;94.16;100820.72;10418031;28;20049;-69
2022/09/25 05:19:52;;;;;;;20.52;1.90;;;;;;;12.95;94.12;100867.16;10417972;28;20408;-68
2022/09/25 05:24:53;;;;;;;5.00;0.70;;;;;;;12.82;93.64;100853.53;10416664;28;20505;-68
2022/09/25 05:29:54;;;;;;;2.97;0.60;;;;;;;13.09;93.56;100887.78;10416936;28;20631;-67
2022/09/25 05:34:54;;;;;;;2.50;0.47;;;;;;;12.42;92.46;100770.81;10452265;28;20049;-70
2022/09/25 05:39:55;;;;;;;0.70;0.43;;;;;;;13.26;92.01;100909.13;10456498;28;20037;-69
2022/09/25 05:44:56;;;;;;;1.25;0.70;;;;;;;12.88;91.79;100831.50;10457730;28;20048;-69
2022/09/25 05:49:57;;;;;;;4.05;0.60;;;;;;;13.19;91.38;100844.91;10455662;28;20040;-69
2022/09/25 05:54:57;;;;;;;1.42;0.50;;;;;;;13.53;90.35;100892.66;10455531;28;20049;-69
2022/09/25 05:59:58;;;;;;;9.43;0.63;;;;;;;13.17;90.04;100831.75;10456676;28;20033;-69
2022/09/25 06:04:59;;;;;;;1.50;0.80;;;;;;;13.89;88.00;100895.63;10457403;28;20037;-68
2022/09/25 06:10:00;;;;;;;1.65;0.80;;;;;;;14.63;85.43;100899.63;10456816;28;20050;-68
2022/09/25 06:15:01;;;;;;;1.30;0.55;;;;;;;14.63;82.75;100800.69;10457153;28;20068;-68
2022/09/25 06:20:02;;;;;;;2.33;0.73;;;;;;;14.91;80.46;100807.06;10457319;28;20045;-70
2022/09/25 06:25:03;;;;;;;5.65;0.80;;;;;;;15.22;78.70;100822.09;10455328;28;20531;-70
2022/09/25 06:30:05;;;;;;;2.65;0.80;;;;;;;16.08;77.14;100914.19;10424650;28;20040;-68
2022/09/25 06:35:06;;;;;;;2.47;1.05;;;;;;;15.24;75.38;100723.72;10418478;28;20987;-67
2022/09/25 06:40:07;;;;;;;2.90;0.82;;;;;;;16.44;73.95;100889.16;10413330;28;20394;-66
2022/09/25 06:45:10;;;;;;;2.75;1.10;;;;;;;16.67;73.11;100902.34;10414181;28;20037;-66
2022/09/25 06:50:13;;;;;;;8.93;1.08;;;;;;;17.01;72.45;100890.03;10412586;28;20135;-67
2022/09/25 06:55:14;;;;;;;2.53;0.80;;;;;;;16.93;70.53;100882.13;10412812;28;20069;-67
2022/09/25 07:00:15;;;;;;;3.75;1.08;;;;;;;16.46;68.74;100803.16;10413798;28;20061;-67
2022/09/25 07:05:17;;;;;;;3.58;0.95;;;;;;;17.13;68.04;100904.53;10413797;28;20083;-67
2022/09/25 07:10:18;;;;;;;2.42;0.70;;;;;;;17.23;67.54;100901.50;10413129;28;20482;-67
2022/09/25 07:15:19;;;;;;;2.28;1.10;;;;;;;17.24;67.04;100906.69;10411449;28;20061;-66
2022/09/25 07:20:21;;;;;;;15.27;2.28;;;;;;;17.40;66.99;100907.38;10412692;28;20049;-66
2022/09/25 07:25:22;;;;;;;4.50;1.13;;;;;;;17.51;66.13;100878.09;10413105;28;20045;-66
2022/09/25 07:30:23;;;;;;;3.60;0.80;;;;;;;17.72;64.40;100861.03;10413518;28;20049;-67
2022/09/25 07:35:26;;;;;;;26.02;1.85;;;;;;;17.31;63.75;100789.38;10412487;28;20037;-67
2022/09/25 07:40:27;;;;;;;3.78;1.00;;;;;;;17.75;63.02;100857.94;10412854;28;20508;-68
2022/09/25 07:45:28;;;;;;;4.03;1.10;;;;;;;17.80;62.26;100854.69;10407589;28;20099;-67
2022/09/25 07:50:30;;;;;;;1.75;1.00;;;;;;;17.99;62.26;100861.13;10406461;28;20404;-68
2022/09/25 07:55:31;;;;;;;2.35;1.08;;;;;;;17.73;61.84;100781.22;10406158;28;20086;-69
2022/09/25 08:00:32;;;;;;;2.80;0.88;;;;;;;18.43;61.20;100830.13;10401455;28;20041;-69
2022/09/25 08:05:33;;;;;;;2.40;1.20;;;;;;;18.58;61.33;100848.75;10405360;28;20557;-67
2022/09/25 08:10:34;;;;;;;1.73;1.00;;;;;;;18.21;61.18;100824.09;10407952;28;20033;-72
2022/09/25 08:15:34;;;;;;;1.70;0.90;;;;;;;17.65;59.41;100768.84;10407233;28;20057;-68
2022/09/25 08:20:38;;;;;;;2.00;1.00;;;;;;;18.17;58.33;100842.53;10415320;28;20409;-68
2022/09/25 08:25:39;;;;;;;;;;;;;;;18.79;60.17;100845.03;10416453;28;20399;-69
2022/09/25 08:30:42;;;;;;;6.72;1.27;;;;;;;18.85;58.10;100825.34;10414329;28;19925;-69
2022/09/25 08:35:43;;;;;;;1.67;0.85;;;;;;;19.11;55.91;100836.00;10410021;28;20034;-68
2022/09/25 08:40:53;;;;;;;2.97;0.90;;;;;;;19.14;52.21;100815.91;10406653;28;20037;-70
2022/09/25 08:51:17;;;;;;;3.53;0.93;;;;;;;19.37;53.30;100785.78;10411291;28;20042;-69
2022/09/25 08:56:18;;;;;;;1.90;0.80;;;;;;;19.80;51.73;100836.34;10410114;28;20120;-69
2022/09/25 09:01:37;;;;;;;2.38;1.00;;;;;;;19.43;49.38;100811.84;10417498;28;20450;-68
2022/09/25 09:06:41;;;;;;;2.47;1.20;;;;;;;19.41;50.17;100800.47;10417302;28;20122;-69
2022/09/25 09:11:55;;;;;;;2.05;0.90;;;;;;;19.14;48.60;100727.03;10411378;28;20191;-70
2022/09/25 09:17:04;;;;;;;6.75;0.80;;;;;;;19.75;49.04;100806.53;10409864;28;20045;-69
2022/09/25 09:22:13;;;;;;;2.10;1.00;;;;;;;19.93;47.20;100795.00;10413725;28;20053;-69
2022/09/25 09:27:19;;;;;;;2.00;0.98;;;;;;;19.84;47.93;100797.97;10410942;28;20095;-68
2022/09/25 09:32:29;;;;;;;5.55;0.75;;;;;;;19.96;48.26;100795.41;10411057;28;20140;-69
2022/09/25 09:37:56;;;;;;;1.90;0.80;;;;;;;20.37;47.82;100795.88;10411598;28;20037;-69
2022/09/25 09:43:31;;;;;;;1.10;0.57;;;;;;;20.33;47.75;100789.28;10409722;28;20041;-67
2022/09/25 09:48:51;;;;;;;15.20;1.55;;;;;;;19.99;48.22;100700.56;10409583;28;20045;-67
2022/09/25 09:54:04;;;;;;;1.23;0.70;;;;;;;20.16;46.09;100718.88;10410980;28;20045;-66
2022/09/25 09:59:17;;;;;;;1.40;0.77;;;;;;;20.69;46.23;100788.53;10409044;28;20029;-67
2022/09/25 10:04:23;;;;;;;6.57;0.85;;;;;;;20.93;46.80;100779.53;10409867;28;20080;-65
2022/09/25 10:09:25;;;;;;;2.75;1.00;;;;;;;21.09;45.41;100766.47;10410506;28;20051;-66
2022/09/25 10:14:31;;;;;;;2.42;0.77;;;;;;;21.02;44.92;100782.75;10414654;28;20033;-68
2022/09/25 10:19:46;;;;;;;1.75;0.68;;;;;;;21.29;44.67;100758.13;10414929;28;20084;-68
2022/09/25 10:24:50;;;;;;;1.00;0.60;;;;;;;21.11;43.36;100775.19;10413479;28;20501;-67
2022/09/25 10:30:13;;;;;;;2.83;0.80;;;;;;;20.98;42.89;100781.56;10413840;28;20504;-67
2022/09/25 10:35:19;;;;;;;2.05;0.57;;;;;;;20.58;43.64;100767.69;10413689;28;20063;-67
2022/09/25 10:40:24;;;;;;;2.42;0.60;;;;;;;20.15;43.24;100703.75;10415150;28;20056;-67
2022/09/25 10:45:31;;;;;;;2.67;0.50;;;;;;;20.55;41.49;100768.13;10413296;28;20041;-69
2022/09/25 10:50:33;;;;;;;2.83;0.60;;;;;;;20.11;41.56;100703.38;10414365;28;20048;-71
2022/09/25 10:55:42;;;;;;;1.52;0.52;;;;;;;20.03;40.54;100693.69;10412120;28;20478;-67
2022/09/25 11:00:46;;;;;;;4.93;0.70;;;;;;;20.17;40.83;100680.91;10416939;28;20511;-69
2022/09/25 11:06:19;;;;;;;1.17;0.50;;;;;;;20.52;40.14;100766.69;10413790;28;20144;-69
2022/09/25 11:11:28;;;;;;;2.28;0.80;;;;;;;20.41;40.75;100752.06;10408077;28;20044;-67
2022/09/25 11:17:05;;;;;;;1.17;0.50;;;;;;;20.60;40.10;100755.63;10406115;28;20052;-68
2022/09/25 11:22:09;;;;;;;1.77;0.50;;;;;;;20.38;40.70;100751.69;10378030;28;20410;-68
2022/09/25 11:27:35;;;;;;;0.77;0.52;;;;;;;20.72;40.34;100751.13;10413312;28;20068;-68
2022/09/25 11:32:39;;;;;;;1.17;0.60;;;;;;;20.88;39.76;100738.06;10413260;28;20041;-67
2022/09/25 11:37:54;;;;;;;1.40;0.52;;;;;;;21.03;38.85;100740.38;10410801;28;20065;-69
2022/09/25 11:43:05;;;;;;;1.17;0.60;;;;;;;20.57;39.32;100683.19;10419082;28;20122;-67
2022/09/25 11:48:22;;;;;;;2.65;0.50;;;;;;;21.00;39.93;100725.47;10430136;28;20044;-66
2022/09/25 11:53:52;;;;;;;1.10;0.52;;;;;;;21.32;39.45;100755.78;10430740;28;20043;-67
2022/09/25 11:59:14;;;;;;;1.17;0.60;;;;;;;21.28;40.21;100699.72;10425825;28;20048;-66
2022/09/25 12:04:15;;;;;;;1.98;0.60;;;;;;;21.50;39.15;100754.94;10417614;28;20048;-71
2022/09/25 12:09:34;;;;;;;2.88;0.80;;;;;;;21.33;39.86;100757.44;10413851;28;20045;-68
2022/09/25 12:14:50;;;;;;;3.22;0.57;;;;;;;20.81;39.51;100684.16;10413669;28;20064;-67
2022/09/25 12:20:22;;;;;;;2.70;0.77;;;;;;;21.22;39.02;100758.22;10411630;28;20046;-67
2022/09/25 12:25:23;;;;;;;3.63;0.80;;;;;;;21.06;40.09;100748.00;10414287;28;20153;-67
2022/09/25 12:30:55;;;;;;;2.92;0.82;;;;;;;21.34;40.14;100759.09;10413826;28;20037;-68
2022/09/25 12:36:11;;;;;;;2.83;0.52;;;;;;;20.69;39.00;100640.06;10398611;28;20583;-70
2022/09/25 12:41:54;;;;;;;1.75;0.70;;;;;;;21.27;39.96;100744.84;10410196;28;20440;-67
2022/09/25 12:47:20;;;;;;;1.42;0.77;;;;;;;21.39;39.74;100751.16;10409928;28;20037;-68
2022/09/25 12:52:39;;;;;;;1.92;0.68;;;;;;;21.13;40.17;100751.47;10411908;28;20088;-69
2022/09/25 12:58:02;;;;;;;3.85;0.80;;;;;;;20.75;40.44;100760.66;10413014;28;20037;-67
2022/09/25 13:03:11;;;;;;;4.43;0.80;;;;;;;20.49;40.72;100759.88;10411762;28;20069;-68
2022/09/25 13:08:28;;;;;;;5.82;1.00;;;;;;;20.36;41.43;100742.97;10409644;28;20049;-67
2022/09/25 13:13:36;;;;;;;3.95;0.80;;;;;;;20.64;40.72;100764.09;10416930;28;20041;-66
2022/09/25 13:18:38;;;;;;;1.05;0.60;;;;;;;20.68;41.08;100765.31;10417091;28;20062;-67
2022/09/25 13:23:40;;;;;;;2.17;0.77;;;;;;;20.32;41.50;100771.44;10416209;28;20060;-67
2022/09/25 13:29:16;;;;;;;2.17;0.63;;;;;;;20.14;41.89;100775.75;10417081;28;20046;-67
2022/09/25 13:34:21;;;;;;;4.18;1.00;;;;;;;19.77;42.73;100759.47;10413678;28;20069;-67
2022/09/25 13:45:25;;;;;;;5.60;0.80;;;;;;;19.15;43.70;100724.16;10416320;28;20118;-67
2022/09/25 13:50:32;;;;;;;1.40;0.80;;;;;;;19.35;43.62;100777.06;10417588;28;20390;-67
2022/09/25 13:55:34;;;;;;;1.58;0.60;;;;;;;19.19;43.69;100772.19;10416944;28;20056;-67
2022/09/25 14:00:37;;;;;;;1.25;0.68;;;;;;;19.12;44.02;100780.31;10415310;28;20448;-67
2022/09/25 14:05:41;;;;;;;2.25;0.60;;;;;;;18.44;44.58;100702.66;10415710;28;20088;-66
2022/09/25 14:10:45;;;;;;;1.65;0.85;;;;;;;18.32;44.93;100715.09;10414957;28;20128;-66
2022/09/25 14:15:46;;;;;;;;;;;;;;;18.84;45.43;100804.81;10415531;28;20037;-68
2022/09/25 14:20:50;;;;;;;3.72;0.80;;;;;;;18.41;46.19;100792.66;10413821;28;19920;-67
2022/09/25 14:26:01;;;;;;;3.70;0.93;;;;;;;18.35;46.38;100793.50;10407782;28;20056;-66
2022/09/25 14:31:34;;;;;;;1.90;0.70;;;;;;;17.97;46.81;100752.97;10413203;28;20037;-66
2022/09/25 14:37:40;;;;;;;4.50;1.10;;;;;;;18.21;47.96;100814.19;10376969;28;20046;-66
2022/09/25 14:42:52;;;;;;;5.32;1.20;;;;;;;18.21;47.53;100830.31;10326376;28;20042;-67
2022/09/25 14:47:58;;;;;;;5.78;0.90;;;;;;;18.11;48.28;100829.91;10387974;28;20065;-66
2022/09/25 14:53:06;;;;;;;2.22;1.00;;;;;;;17.94;49.35;100817.88;10411967;28;20045;-66
2022/09/25 14:58:14;;;;;;;2.95;0.80;;;;;;;17.97;49.32;100839.81;10426983;28;20170;-67
2022/09/25 15:03:19;;;;;;;5.20;0.98;;;;;;;17.83;49.71;100848.91;10410664;28;20041;-68
2022/09/25 15:08:35;;;;;;;8.23;1.40;;;;;;;17.25;50.28;100755.28;10413150;28;20416;-67
2022/09/25 15:13:36;;;;;;;3.40;1.50;;;;;;;17.72;50.39;100857.50;10412719;28;20038;-66
2022/09/25 15:18:50;;;;;;;5.22;1.10;;;;;;;17.22;50.99;100792.47;10411309;28;20076;-66
2022/09/25 15:23:53;;;;;;;3.35;1.45;;;;;;;17.64;50.86;100868.44;10412533;28;20413;-67
2022/09/25 15:28:54;;;;;;;2.33;0.88;;;;;;;17.08;51.18;100803.16;10411043;28;20588;-67
2022/09/25 15:34:10;;;;;;;2.05;1.00;;;;;;;17.45;52.45;100880.75;10426853;28;20164;-67
2022/09/25 15:39:16;;;;;;;2.55;1.00;;;;;;;17.27;52.48;100871.38;10429417;28;20044;-67
2022/09/25 15:44:25;;;;;;;3.25;1.00;;;;;;;17.23;53.41;100896.13;10425658;28;20029;-67
2022/09/25 15:49:41;;;;;;;14.18;1.88;;;;;;;16.61;56.44;100817.28;10429795;28;20041;-68
2022/09/25 15:54:45;;;;;;;13.43;3.83;;;;;;;16.76;57.12;100903.91;10426465;28;20487;-66
2022/09/25 16:05:10;;;;;;;5.63;1.92;;;;;;;15.76;60.55;100827.06;10431044;28;20045;-66
2022/09/25 16:10:11;;;;;;;3.53;1.45;;;;;;;16.04;60.43;100912.09;10424662;28;20072;-66
2022/09/25 16:15:41;;;;;;;12.52;1.42;;;;;;;15.89;63.61;100915.63;10405713;28;20037;-67
2022/09/25 16:20:42;;;;;;;5.75;1.58;;;;;;;15.59;62.89;100914.00;10407747;28;20413;-68
2022/09/25 16:25:43;;;;;;;7.63;1.35;;;;;;;15.39;64.35;100917.22;10404955;28;20033;-65
2022/09/25 16:31:05;;;;;;;12.25;1.50;;;;;;;15.34;68.61;100921.47;10406652;28;20087;-66
2022/09/25 16:36:14;;;;;;;11.23;1.83;;;;;;;15.25;68.79;100944.81;10407982;28;20038;-67
2022/09/25 16:41:18;;;;;;;14.50;2.05;;;;;;;15.18;66.55;100955.44;10419801;28;20041;-66
2022/09/25 16:46:21;;;;;;;5.75;2.47;;;;;;;14.60;68.78;100874.09;10424295;28;20143;-66
2022/09/25 16:51:27;;;;;;;5.95;2.20;;;;;;;15.15;67.85;100969.19;10426453;28;20037;-66
2022/09/25 16:56:31;;;;;;;9.60;3.10;;;;;;;15.27;67.74;100966.91;10434803;28;20493;-66
2022/09/25 17:01:32;;;;;;;14.27;3.53;;;;;;;15.40;66.92;100963.56;10436756;28;20041;-66
2022/09/25 17:06:38;;;;;;;11.00;3.92;;;;;;;15.32;66.83;100939.59;10436313;28;20374;-66
2022/09/25 17:11:41;;;;;;;24.13;4.78;;;;;;;15.58;67.60;100976.59;10435340;28;20128;-65
2022/09/25 17:16:42;;;;;;;8.00;3.60;;;;;;;15.50;67.00;100964.97;10417571;28;20144;-66
2022/09/25 17:21:43;;;;;;;7.90;3.80;;;;;;;15.64;67.02;100984.72;10417360;28;20136;-65
2022/09/25 17:26:44;;;;;;;7.13;3.45;;;;;;;15.57;67.00;100954.34;10416285;28;20050;-66
2022/09/25 17:31:45;;;;;;;7.90;2.78;;;;;;;15.67;66.91;100962.94;10417290;28;20049;-66
2022/09/25 17:36:46;;;;;;;9.15;3.45;;;;;;;15.74;66.98;100969.22;10416839;28;20042;-66
2022/09/25 17:41:47;;;;;;;7.07;2.28;;;;;;;15.61;66.89;100947.59;10416348;28;20413;-65
2022/09/25 17:46:49;;;;;;;7.20;2.47;;;;;;;15.68;67.16;100961.94;10416501;28;20557;-66
2022/09/25 17:51:51;;;;;;;8.63;2.88;;;;;;;15.15;67.14;100878.19;10416234;28;20042;-65
2022/09/25 17:56:52;;;;;;;13.43;1.90;;;;;;;15.49;66.93;100931.16;10415235;28;20045;-66
2022/09/25 18:01:52;;;;;;;6.47;1.73;;;;;;;15.74;66.43;100977.28;10415695;28;20188;-66
2022/09/25 18:06:55;;;;;;;14.63;3.53;;;;;;;14.56;66.71;100769.34;10416252;28;20084;-65
2022/09/25 18:11:56;;;;;;;14.48;4.15;;;;;;;15.86;66.76;100977.63;10415217;28;20045;-66
2022/09/25 18:16:57;;;;;;;12.98;4.47;;;;;;;15.74;66.84;100958.53;10416201;28;20128;-66
2022/09/25 18:22:16;;;;;;;8.48;3.72;;;;;;;15.78;67.07;100971.53;10415686;28;20041;-66
2022/09/25 18:27:17;;;;;;;6.53;2.50;;;;;;;15.61;67.06;100954.78;10414786;28;20501;-66
2022/09/25 18:32:18;;;;;;;8.80;3.78;;;;;;;15.79;67.16;100992.75;10415400;28;20034;-66
2022/09/25 18:37:19;;;;;;;10.10;3.67;;;;;;;15.56;67.08;100957.22;10412957;28;20045;-66
2022/09/25 18:42:20;;;;;;;16.35;3.80;;;;;;;15.34;67.10;100927.66;10415165;28;20042;-65
2022/09/25 18:47:21;;;;;;;7.40;2.45;;;;;;;15.64;67.51;100981.19;10413929;28;20064;-67
2022/09/25 18:52:22;;;;;;;6.60;1.92;;;;;;;15.75;67.43;101010.25;10413869;28;20095;-66
2022/09/25 18:57:23;;;;;;;7.35;1.70;;;;;;;15.57;67.53;100999.03;10413551;28;20037;-66
2022/09/25 19:02:24;;;;;;;4.30;1.38;;;;;;;15.67;67.44;101002.25;10412792;28;20501;-66
2022/09/25 19:07:27;;;;;;;2.83;1.30;;;;;;;15.53;67.66;100996.72;10413587;28;20042;-66
2022/09/25 19:12:27;;;;;;;4.75;1.85;;;;;;;15.48;68.00;100992.94;10413610;28;20038;-65
2022/09/25 19:17:29;;;;;;;3.85;1.60;;;;;;;15.46;68.44;101008.34;10413673;28;20053;-66
2022/09/25 19:22:30;;;;;;;10.23;4.00;;;;;;;15.27;68.19;100994.50;10411937;28;20049;-65
2022/09/25 19:27:31;;;;;;;8.43;2.90;;;;;;;15.43;68.74;101025.59;10412718;28;20049;-65
2022/09/25 19:32:31;;;;;;;15.02;3.65;;;;;;;15.34;69.23;101033.91;10413469;28;20049;-66
2022/09/25 19:37:32;;;;;;;12.27;2.85;;;;;;;15.12;69.45;101012.38;10412335;28;20041;-66
2022/09/25 19:42:36;;;;;;;8.18;2.15;;;;;;;14.87;69.75;100981.47;10412871;28;20049;-66
2022/09/25 19:47:37;;;;;;;7.78;1.70;;;;;;;14.98;70.56;101014.00;10411233;28;20061;-66
2022/09/25 19:52:37;;;;;;;11.93;1.80;;;;;;;14.88;71.06;101034.00;10430969;28;20065;-66
2022/09/25 19:57:38;;;;;;;8.75;2.10;;;;;;;14.04;72.00;100914.41;10431987;28;20091;-66
2022/09/25 20:02:43;;;;;;;10.05;1.38;;;;;;;13.92;73.62;100922.00;10430563;28;20029;-66
2022/09/25 20:07:44;;;;;;;5.10;1.10;;;;;;;14.36;73.12;101024.78;10425226;28;20095;-66
2022/09/25 20:12:46;;;;;;;7.50;1.50;;;;;;;14.18;74.57;101034.88;10412053;28;20382;-65
2022/09/25 20:17:47;;;;;;;5.10;1.10;;;;;;;13.48;74.39;100943.06;10417407;28;20106;-66
2022/09/25 20:22:48;;;;;;;3.70;1.13;;;;;;;13.78;75.12;101004.69;10419249;28;20099;-66
2022/09/25 20:27:51;;;;;;;4.10;1.50;;;;;;;13.78;75.91;101021.53;10419708;28;20048;-65
2022/09/25 20:32:51;;;;;;;6.00;2.00;;;;;;;13.16;76.04;100928.78;10419804;28;20045;-66
2022/09/25 20:37:52;;;;;;;10.40;2.20;;;;;;;12.86;77.11;100910.81;10419466;28;20497;-67
2022/09/25 20:42:53;;;;;;;9.65;4.00;;;;;;;13.37;78.12;100996.78;10418913;28;20127;-65
2022/09/25 20:47:54;;;;;;;10.75;3.00;;;;;;;12.31;78.70;100846.59;10418283;28;20046;-65
2022/09/25 20:52:56;;;;;;;14.40;4.85;;;;;;;13.09;79.72;100985.66;10418360;28;20044;-65
2022/09/25 20:57:57;;;;;;;18.83;3.13;;;;;;;12.55;80.15;100917.69;10418667;28;20043;-66
2022/09/25 21:02:58;;;;;;;29.33;2.90;;;;;;;12.44;80.20;100915.34;10418624;28;20040;-66
2022/09/25 21:08:00;;;;;;;12.93;2.40;;;;;;;12.88;80.35;100983.50;10418169;28;20060;-66
2022/09/25 21:13:05;;;;;;;9.75;3.00;;;;;;;12.77;79.72;100942.84;10418604;28;20080;-66
2022/09/25 21:18:06;;;;;;;8.27;1.87;;;;;;;13.02;79.62;100998.81;10418346;28;20477;-66
2022/09/25 21:23:06;;;;;;;6.15;1.75;;;;;;;13.02;80.23;101012.16;10417210;28;20308;-67
2022/09/25 21:28:07;;;;;;;4.15;1.55;;;;;;;12.88;80.04;101002.16;10416901;28;20049;-66
2022/09/25 21:33:08;;;;;;;4.07;1.90;;;;;;;11.90;80.22;100859.03;10418362;28;20477;-66
2022/09/25 21:38:09;;;;;;;5.82;1.90;;;;;;;12.29;80.63;100927.66;10416616;28;20321;-66
2022/09/25 21:43:10;;;;;;;6.78;1.80;;;;;;;12.60;81.08;100988.34;10415004;28;20049;-66
2022/09/25 21:48:11;;;;;;;5.32;2.00;;;;;;;12.62;81.39;100983.66;10448798;28;20075;-66
2022/09/25 21:53:11;;;;;;;10.57;2.58;;;;;;;12.64;82.37;100995.81;10416625;28;20512;-66
2022/09/25 21:58:12;;;;;;;7.80;2.78;;;;;;;12.69;82.54;100996.16;10415703;28;20053;-66
2022/09/25 22:03:14;;;;;;;6.50;2.17;;;;;;;12.70;81.92;100986.31;10415683;28;20139;-66
2022/09/25 22:08:14;;;;;;;4.72;1.90;;;;;;;12.35;80.71;100892.38;10448242;28;20104;-66
2022/09/25 22:13:15;;;;;;;6.25;2.47;;;;;;;12.91;80.59;100997.31;10415684;28;20127;-66
2022/09/25 22:18:16;;;;;;;3.35;2.10;;;;;;;12.75;81.23;100987.50;10414872;28;20071;-66
2022/09/25 22:23:17;;;;;;;8.55;2.15;;;;;;;12.69;81.51;100993.50;10414916;28;20041;-66
2022/09/25 22:28:21;;;;;;;4.72;2.03;;;;;;;12.14;82.07;100908.00;10415306;28;20048;-66
2022/09/25 22:33:21;;;;;;;4.93;2.33;;;;;;;12.14;81.81;100913.31;10414553;28;20132;-66
2022/09/25 22:38:22;;;;;;;6.13;1.92;;;;;;;12.32;82.31;100967.28;10414032;28;20156;-66
2022/09/25 22:43:23;;;;;;;10.52;2.17;;;;;;;12.28;82.80;100958.81;10413391;28;20053;-66
2022/09/25 22:48:24;;;;;;;3.30;1.98;;;;;;;12.54;83.01;100984.50;10414365;28;20065;-66
2022/09/25 22:53:27;;;;;;;7.13;2.42;;;;;;;12.67;82.69;100990.16;10414499;28;20429;-66
2022/09/25 22:58:28;;;;;;;9.57;3.92;;;;;;;12.89;82.38;100986.00;10412896;28;20045;-66
2022/09/25 23:03:29;;;;;;;12.32;4.35;;;;;;;13.07;82.19;100993.81;10412431;28;20524;-66
2022/09/25 23:08:30;;;;;;;8.15;3.40;;;;;;;13.09;82.12;100989.13;10412109;28;20045;-66
2022/09/25 23:13:31;;;;;;;10.05;2.58;;;;;;;13.07;82.31;100987.63;10413275;28;20420;-66
2022/09/25 23:18:34;;;;;;;2.40;1.60;;;;;;;13.10;82.55;101001.50;10413381;28;20452;-66
2022/09/25 23:23:35;;;;;;;2.78;1.77;;;;;;;13.06;82.46;100994.00;10413959;28;20061;-66
2022/09/25 23:28:38;;;;;;;4.40;2.13;;;;;;;13.08;82.58;101011.50;10413049;28;20536;-66
2022/09/25 23:33:39;;;;;;;4.35;2.00;;;;;;;13.10;82.66;101022.84;10411601;28;20041;-66
2022/09/25 23:38:40;;;;;;;4.18;2.03;;;;;;;12.88;82.83;100999.50;10413611;28;20037;-66
2022/09/25 23:43:41;;;;;;;4.18;2.60;;;;;;;12.89;83.64;101031.34;10412979;28;20057;-66
2022/09/25 23:48:42;;;;;;;5.20;2.70;;;;;;;12.78;83.55;101027.16;10412646;28;20603;-65
2022/09/25 23:53:44;;;;;;;5.40;2.60;;;;;;;12.85;83.83;101030.00;10421212;28;20045;-66